Time;durP1;ratioP1;P1;durP2;ratioP2;P2;SDS_P1;SDS_P2;PMS_P1;PMS_P2;Temp;Humidity;BMP_temperature;BMP_pressure;BME280_temperature;BME280_humidity;BME280_pressure;Samples;Min_cycle;Max_cycle;Signal;HPM_P1;HPM_P2
2021/03/15 00:00:01;;;;;;;12.65;8.50;;;5.50;99.90;;;;;;4143752;28;20548;-79
2021/03/15 00:02:01;;;;;;;12.23;8.38;;;5.50;99.90;;;;;;4140689;28;20061;-79
2021/03/15 00:04:02;;;;;;;13.70;8.20;;;5.40;99.90;;;;;;4137441;28;20564;-78
2021/03/15 00:06:03;;;;;;;16.88;9.18;;;5.40;99.90;;;;;;4143371;28;20040;-78
2021/03/15 00:08:04;;;;;;;13.43;8.65;;;5.40;99.90;;;;;;4140399;28;20053;-79
2021/03/15 00:10:06;;;;;;;17.48;8.43;;;5.40;99.90;;;;;;4134552;28;20033;-79
2021/03/15 00:12:08;;;;;;;22.92;12.70;;;5.40;99.90;;;;;;4143297;28;20398;-80
2021/03/15 00:14:09;;;;;;;19.13;9.05;;;5.40;99.90;;;;;;4142966;28;20034;-80
2021/03/15 00:16:09;;;;;;;24.15;9.02;;;5.40;99.90;;;;;;4143583;28;20109;-79
2021/03/15 00:18:10;;;;;;;16.50;8.85;;;5.40;99.90;;;;;;4140052;28;20053;-80
2021/03/15 00:20:13;;;;;;;17.65;9.55;;;5.40;99.90;;;;;;4136317;28;20026;-80
2021/03/15 00:22:14;;;;;;;26.95;8.90;;;5.40;99.90;;;;;;4140668;28;20023;-79
2021/03/15 00:24:16;;;;;;;23.58;8.95;;;5.40;99.90;;;;;;4143725;28;20034;-79
2021/03/15 00:26:16;;;;;;;17.30;10.20;;;5.40;99.90;;;;;;4142580;28;20046;-80
2021/03/15 00:28:17;;;;;;;12.38;8.32;;;5.50;99.90;;;;;;4141710;28;20065;-80
2021/03/15 00:30:18;;;;;;;17.85;8.90;;;5.40;99.90;;;;;;4142834;28;20132;-80
2021/03/15 00:32:19;;;;;;;15.13;8.82;;;5.50;99.90;;;;;;4141170;28;20076;-80
2021/03/15 00:34:20;;;;;;;21.63;8.95;;;5.50;99.90;;;;;;4145119;28;20034;-80
2021/03/15 00:36:21;;;;;;;15.18;8.73;;;5.50;99.90;;;;;;4144216;28;20045;-80
2021/03/15 00:38:21;;;;;;;17.52;8.93;;;5.50;99.90;;;;;;4141586;28;20030;-80
2021/03/15 00:40:22;;;;;;;12.77;8.25;;;5.50;99.90;;;;;;4138094;28;20080;-80
2021/03/15 00:42:23;;;;;;;12.82;7.50;;;5.50;99.90;;;;;;4140240;28;20131;-80
2021/03/15 00:44:24;;;;;;;13.77;7.40;;;5.50;99.90;;;;;;4133221;28;20670;-80
2021/03/15 00:46:25;;;;;;;15.45;6.80;;;5.50;99.90;;;;;;4134966;28;20034;-80
2021/03/15 00:48:25;;;;;;;16.73;7.80;;;5.50;99.90;;;;;;4141630;28;20088;-80
2021/03/15 00:50:41;;;;;;;11.90;7.55;;;5.40;99.90;;;;;;4136023;28;20037;-79
2021/03/15 00:52:42;;;;;;;15.35;8.00;;;5.40;99.90;;;;;;4146687;28;20037;-80
2021/03/15 00:54:46;;;;;;;25.23;9.07;;;5.30;99.90;;;;;;4141694;28;20042;-79
2021/03/15 00:56:47;;;;;;;14.70;8.25;;;5.30;99.90;;;;;;4145899;28;20029;-79
2021/03/15 00:58:48;;;;;;;16.02;9.05;;;5.40;99.90;;;;;;4145408;28;20026;-80
2021/03/15 01:00:49;;;;;;;18.50;7.85;;;5.40;99.90;;;;;;4144954;28;20536;-79
2021/03/15 01:02:50;;;;;;;17.63;8.18;;;5.50;99.90;;;;;;4146107;28;20057;-79
2021/03/15 01:04:51;;;;;;;11.43;7.50;;;5.40;99.90;;;;;;4147585;28;20026;-80
2021/03/15 01:06:51;;;;;;;17.40;8.05;;;5.50;99.90;;;;;;4142654;28;20038;-79
2021/03/15 01:08:52;;;;;;;12.95;6.90;;;5.50;99.90;;;;;;4141024;28;20069;-80
2021/03/15 01:10:53;;;;;;;16.15;7.32;;;5.50;99.90;;;;;;4144570;28;20034;-80
2021/03/15 01:12:54;;;;;;;13.77;6.43;;;5.60;99.90;;;;;;4145355;28;20053;-80
2021/03/15 01:14:56;;;;;;;17.65;7.18;;;5.50;99.90;;;;;;4138918;28;20076;-80
2021/03/15 01:16:57;;;;;;;8.95;6.47;;;5.50;99.90;;;;;;4141077;28;20026;-80
2021/03/15 01:18:58;;;;;;;13.93;7.47;;;5.50;99.90;;;;;;4144631;28;20037;-80
2021/03/15 01:20:59;;;;;;;12.77;7.50;;;5.40;99.90;;;;;;4143887;28;20077;-80
2021/03/15 01:23:00;;;;;;;8.07;4.95;;;5.40;99.90;;;;;;4145507;28;20030;-80
2021/03/15 01:25:01;;;;;;;10.27;5.70;;;5.40;99.90;;;;;;4143750;28;20125;-80
2021/03/15 01:27:01;;;;;;;13.10;6.75;;;5.50;99.90;;;;;;4145347;28;20448;-79
2021/03/15 01:29:02;;;;;;;15.73;6.00;;;5.40;99.90;;;;;;4145750;28;20532;-79
2021/03/15 01:31:02;;;;;;;11.77;6.68;;;5.40;99.90;;;;;;4143117;28;20037;-80
2021/03/15 01:33:04;;;;;;;17.05;6.18;;;5.40;99.90;;;;;;4142097;28;20549;-80
2021/03/15 01:35:06;;;;;;;19.88;6.20;;;5.40;99.90;;;;;;4143063;28;20022;-80
2021/03/15 01:37:07;;;;;;;14.70;6.40;;;5.40;99.90;;;;;;4145188;28;20654;-79
2021/03/15 01:39:07;;;;;;;13.80;6.50;;;5.40;99.90;;;;;;4145412;28;20053;-80
2021/03/15 01:41:08;;;;;;;14.68;5.97;;;5.40;99.90;;;;;;4142215;28;20061;-79
2021/03/15 01:43:09;;;;;;;14.60;6.22;;;5.40;99.90;;;;;;4167454;28;20596;-79
2021/03/15 01:45:11;;;;;;;11.65;5.57;;;5.30;99.90;;;;;;4140736;28;20037;-80
2021/03/15 01:47:11;;;;;;;11.32;5.40;;;5.40;99.90;;;;;;4142802;28;20497;-80
2021/03/15 01:49:12;;;;;;;13.88;5.47;;;5.50;99.90;;;;;;4139087;28;20117;-79
2021/03/15 01:51:13;;;;;;;13.73;5.80;;;5.50;99.90;;;;;;4143757;28;20030;-80
2021/03/15 01:53:15;;;;;;;14.57;6.93;;;5.50;99.90;;;;;;4142524;28;20045;-80
2021/03/15 01:55:17;;;;;;;12.82;5.82;;;5.50;99.90;;;;;;4144724;28;20113;-79
2021/03/15 01:57:18;;;;;;;13.07;6.00;;;5.50;99.90;;;;;;4145870;28;20038;-80
2021/03/15 01:59:19;;;;;;;13.20;6.18;;;5.50;99.90;;;;;;4139721;28;20527;-80
2021/03/15 02:01:20;;;;;;;16.45;5.75;;;5.50;99.90;;;;;;4142225;28;20066;-80
2021/03/15 02:03:21;;;;;;;18.38;6.47;;;5.50;99.90;;;;;;4141720;28;20528;-80
2021/03/15 02:05:22;;;;;;;15.38;5.47;;;5.50;99.90;;;;;;4138264;28;20030;-81
2021/03/15 02:07:22;;;;;;;17.13;6.47;;;5.50;99.90;;;;;;4146145;28;20434;-81
2021/03/15 02:09:23;;;;;;;18.58;6.03;;;5.50;99.90;;;;;;4144688;28;20026;-81
2021/03/15 02:11:42;;;;;;;16.95;6.30;;;5.50;99.90;;;;;;4146040;28;20027;-81
2021/03/15 02:13:51;;;;;;;15.90;5.95;;;5.50;99.90;;;;;;4144845;28;20084;-81
2021/03/15 02:16:13;;;;;;;20.23;6.53;;;5.50;99.90;;;;;;4145881;28;20061;-80
2021/03/15 02:18:26;;;;;;;13.93;5.72;;;5.50;99.90;;;;;;4140399;28;20034;-80
2021/03/15 02:21:08;;;;;;;17.27;6.33;;;5.50;99.90;;;;;;4160436;28;20052;-80
2021/03/15 02:23:47;;;;;;;15.95;6.80;;;5.40;99.90;;;;;;4144263;28;20269;-79
2021/03/15 02:26:10;;;;;;;12.88;6.03;;;5.40;99.90;;;;;;4129233;28;20092;-80
2021/03/15 02:28:41;;;;;;;15.07;5.82;;;5.40;99.90;;;;;;4143011;28;20460;-80
2021/03/15 02:31:08;;;;;;;20.38;6.43;;;5.40;99.90;;;;;;4143750;28;20030;-80
2021/03/15 02:33:46;;;;;;;11.07;5.97;;;5.40;99.90;;;;;;4143745;28;20070;-80
2021/03/15 02:35:48;;;;;;;19.45;7.57;;;5.40;99.90;;;;;;4168959;28;20037;-80
2021/03/15 02:37:56;;;;;;;19.85;6.82;;;5.40;99.90;;;;;;4132222;28;20320;-80
2021/03/15 02:40:05;;;;;;;13.52;6.50;;;5.40;99.90;;;;;;4142513;28;20054;-81
2021/03/15 02:42:11;;;;;;;17.23;7.25;;;5.40;99.90;;;;;;4135206;28;20033;-80
2021/03/15 02:44:13;;;;;;;13.95;7.22;;;5.40;99.90;;;;;;4137675;28;20076;-80
2021/03/15 02:46:23;;;;;;;9.55;6.82;;;5.40;99.90;;;;;;4142348;28;20033;-80
2021/03/15 02:48:26;;;;;;;12.45;7.10;;;5.40;99.90;;;;;;4138280;28;20035;-80
2021/03/15 02:50:28;;;;;;;12.50;7.28;;;5.40;99.90;;;;;;4141298;28;20041;-80
2021/03/15 02:52:31;;;;;;;15.35;7.70;;;5.30;99.90;;;;;;4143911;28;20037;-80
2021/03/15 02:54:34;;;;;;;15.35;8.13;;;5.40;99.90;;;;;;4140939;28;20025;-80
2021/03/15 02:56:42;;;;;;;15.60;9.07;;;5.40;99.90;;;;;;4142469;28;20371;-80
2021/03/15 02:58:45;;;;;;;21.00;8.70;;;5.40;99.90;;;;;;4142486;28;20474;-80
2021/03/15 03:00:49;;;;;;;16.05;9.63;;;5.40;99.90;;;;;;4141738;28;20099;-80
2021/03/15 03:02:51;;;;;;;13.40;8.38;;;5.50;99.90;;;;;;4144758;28;20168;-80
2021/03/15 03:04:53;;;;;;;18.27;10.45;;;5.50;99.90;;;;;;4145962;28;20022;-80
2021/03/15 03:06:56;;;;;;;23.35;9.38;;;5.50;99.90;;;;;;4142138;28;20054;-80
2021/03/15 03:08:59;;;;;;;21.40;10.68;;;5.50;99.90;;;;;;4141712;28;20446;-80
2021/03/15 03:11:00;;;;;;;17.30;9.35;;;5.50;99.90;;;;;;4137316;28;20041;-80
2021/03/15 03:13:03;;;;;;;20.27;11.60;;;5.50;99.90;;;;;;4140308;28;20038;-80
2021/03/15 03:15:06;;;;;;;22.40;10.73;;;5.40;99.90;;;;;;4142725;28;20037;-80
2021/03/15 03:17:10;;;;;;;16.77;9.60;;;5.50;99.90;;;;;;4138750;28;20034;-80
2021/03/15 03:19:14;;;;;;;17.65;9.77;;;5.50;99.90;;;;;;4145895;28;20103;-80
2021/03/15 03:21:19;;;;;;;24.00;10.95;;;5.50;99.90;;;;;;4141652;28;20037;-80
2021/03/15 03:23:22;;;;;;;19.90;10.75;;;5.50;99.90;;;;;;4142002;28;20090;-80
2021/03/15 03:25:24;;;;;;;20.98;9.93;;;5.60;99.90;;;;;;4168556;28;20033;-80
2021/03/15 03:27:26;;;;;;;27.70;11.85;;;5.60;99.90;;;;;;4140124;28;20414;-79
2021/03/15 03:29:27;;;;;;;18.33;10.80;;;5.60;99.90;;;;;;4135366;28;20038;-80
2021/03/15 03:31:31;;;;;;;26.52;11.05;;;5.60;99.90;;;;;;4145153;28;20026;-80
2021/03/15 03:33:32;;;;;;;;;;;5.60;99.90;;;;;;4144019;28;20349;-80
2021/03/15 03:35:33;;;;;;;21.88;10.10;;;5.60;99.90;;;;;;4138395;28;19914;-80
2021/03/15 03:37:35;;;;;;;21.40;10.05;;;5.60;99.90;;;;;;4145231;28;20547;-80
2021/03/15 03:39:35;;;;;;;19.55;9.32;;;5.60;99.90;;;;;;4143794;28;20714;-80
2021/03/15 03:41:37;;;;;;;20.98;10.80;;;5.60;99.90;;;;;;4145160;28;20065;-80
2021/03/15 03:43:39;;;;;;;25.10;10.73;;;5.60;99.90;;;;;;4143645;28;20070;-80
2021/03/15 03:45:40;;;;;;;26.42;10.90;;;5.60;99.90;;;;;;4143437;28;21725;-80
2021/03/15 03:47:42;;;;;;;26.73;10.20;;;5.60;99.90;;;;;;4143772;28;20124;-80
2021/03/15 03:49:43;;;;;;;17.97;8.40;;;5.60;99.90;;;;;;4176178;28;20041;-80
2021/03/15 03:51:53;;;;;;;26.20;9.52;;;5.60;99.90;;;;;;4132688;28;20152;-80
2021/03/15 03:54:03;;;;;;;19.75;9.85;;;5.70;99.90;;;;;;4141779;28;20037;-79
2021/03/15 03:56:27;;;;;;;21.38;9.25;;;5.70;99.90;;;;;;4141886;28;20497;-80
2021/03/15 03:58:31;;;;;;;22.73;9.35;;;5.60;99.90;;;;;;4115106;28;20149;-80
2021/03/15 04:00:32;;;;;;;24.52;11.02;;;5.60;99.90;;;;;;4134941;28;20030;-79
2021/03/15 04:02:43;;;;;;;16.90;9.10;;;5.60;99.90;;;;;;4142584;28;20361;-80
2021/03/15 04:04:51;;;;;;;19.80;9.70;;;5.60;99.90;;;;;;4144216;28;20477;-80
2021/03/15 04:06:53;;;;;;;17.83;9.18;;;5.60;99.90;;;;;;4142481;28;20060;-80
2021/03/15 04:08:58;;;;;;;17.13;8.52;;;5.60;99.90;;;;;;4139593;28;20030;-79
2021/03/15 04:11:00;;;;;;;20.33;9.60;;;5.60;99.90;;;;;;4136707;28;21745;-80
2021/03/15 04:13:09;;;;;;;16.13;9.05;;;5.60;99.90;;;;;;4143378;28;20030;-80
2021/03/15 04:15:10;;;;;;;14.68;8.75;;;5.70;99.90;;;;;;4165936;28;20107;-80
2021/03/15 04:17:17;;;;;;;24.27;8.65;;;5.70;99.90;;;;;;4132147;28;20026;-80
2021/03/15 04:19:26;;;;;;;18.40;8.90;;;5.70;99.90;;;;;;4156071;28;20026;-80
2021/03/15 04:21:30;;;;;;;21.48;9.82;;;5.60;99.90;;;;;;4139777;28;20030;-80
2021/03/15 04:23:38;;;;;;;27.88;11.20;;;5.70;99.90;;;;;;4143807;28;20026;-80
2021/03/15 04:25:40;;;;;;;26.35;10.23;;;5.60;99.90;;;;;;4133698;28;20422;-80
2021/03/15 04:27:44;;;;;;;23.52;9.23;;;5.60;99.90;;;;;;4139379;28;20305;-80
2021/03/15 04:29:46;;;;;;;18.60;9.18;;;5.60;99.90;;;;;;4139905;28;20023;-80
2021/03/15 04:31:47;;;;;;;18.02;8.98;;;5.70;99.90;;;;;;4143948;28;20026;-79
2021/03/15 04:33:49;;;;;;;18.35;8.73;;;5.70;99.90;;;;;;4142929;28;20397;-79
2021/03/15 04:35:51;;;;;;;24.40;9.23;;;5.70;99.90;;;;;;4143194;28;20639;-79
2021/03/15 04:37:53;;;;;;;25.50;8.88;;;5.70;99.90;;;;;;4142941;28;20046;-80
2021/03/15 04:39:55;;;;;;;23.67;9.50;;;5.60;99.90;;;;;;4143095;28;20061;-79
2021/03/15 04:41:57;;;;;;;12.73;8.77;;;5.60;99.90;;;;;;4141600;28;20030;-80
2021/03/15 04:43:58;;;;;;;18.58;10.20;;;5.60;99.90;;;;;;4135603;28;20038;-80
2021/03/15 04:45:59;;;;;;;14.18;8.73;;;5.50;99.90;;;;;;4137816;28;20027;-80
2021/03/15 04:48:20;;;;;;;17.80;9.13;;;5.50;99.90;;;;;;4134222;28;20033;-80
2021/03/15 04:50:21;;;;;;;20.02;10.88;;;5.50;99.90;;;;;;4138225;28;20758;-80
2021/03/15 04:52:23;;;;;;;15.90;8.13;;;5.50;99.90;;;;;;4140588;28;20060;-80
2021/03/15 04:54:23;;;;;;;24.65;9.13;;;5.50;99.90;;;;;;4135158;28;20035;-80
2021/03/15 04:56:25;;;;;;;17.90;8.20;;;5.50;99.90;;;;;;4135982;28;20563;-80
2021/03/15 04:58:27;;;;;;;14.75;7.85;;;5.50;99.90;;;;;;4160109;28;20025;-80
2021/03/15 05:00:28;;;;;;;17.70;8.07;;;5.50;99.90;;;;;;4142743;28;20484;-80
2021/03/15 05:02:30;;;;;;;14.90;8.23;;;5.50;99.90;;;;;;4141680;28;20042;-80
2021/03/15 05:04:32;;;;;;;18.58;8.35;;;5.50;99.90;;;;;;4142907;28;20030;-80
2021/03/15 05:06:34;;;;;;;19.08;8.75;;;5.50;99.90;;;;;;4142082;28;20362;-80
2021/03/15 05:08:45;;;;;;;21.38;9.70;;;5.40;99.90;;;;;;4137110;28;20026;-80
2021/03/15 05:10:46;;;;;;;13.60;8.18;;;5.30;99.90;;;;;;4141069;28;20205;-81
2021/03/15 05:12:48;;;;;;;26.15;8.07;;;5.30;99.90;;;;;;4141164;28;20034;-81
2021/03/15 05:14:49;;;;;;;14.30;7.85;;;5.30;99.90;;;;;;4139648;28;20438;-80
2021/03/15 05:16:50;;;;;;;18.88;8.05;;;5.30;99.90;;;;;;4139869;28;20026;-81
2021/03/15 05:18:54;;;;;;;15.70;7.15;;;5.40;99.90;;;;;;4140164;28;20387;-80
2021/03/15 05:20:54;;;;;;;24.88;9.02;;;5.50;99.90;;;;;;4137515;28;20045;-80
2021/03/15 05:22:56;;;;;;;15.10;7.47;;;5.50;99.90;;;;;;4140735;28;20046;-80
2021/03/15 05:24:58;;;;;;;14.05;8.45;;;5.50;99.90;;;;;;4138242;28;20038;-80
2021/03/15 05:26:59;;;;;;;12.60;7.13;;;5.50;99.90;;;;;;4140785;28;20073;-80
2021/03/15 05:29:02;;;;;;;14.48;6.97;;;5.50;99.90;;;;;;4151418;28;20068;-80
2021/03/15 05:31:04;;;;;;;13.10;7.55;;;5.50;99.90;;;;;;4169643;28;20064;-79
2021/03/15 05:33:11;;;;;;;16.08;6.90;;;5.60;99.90;;;;;;4142993;28;20196;-80
2021/03/15 05:35:14;;;;;;;13.35;7.22;;;5.60;99.90;;;;;;4137425;28;20109;-80
2021/03/15 05:37:17;;;;;;;12.50;7.47;;;5.60;99.90;;;;;;4143886;28;20038;-80
2021/03/15 05:39:17;;;;;;;15.70;7.85;;;5.50;99.90;;;;;;4140780;28;20038;-80
2021/03/15 05:41:29;;;;;;;12.40;7.00;;;5.40;99.90;;;;;;4139601;28;20738;-80
2021/03/15 05:43:49;;;;;;;12.52;7.85;;;5.30;99.90;;;;;;4142207;28;20480;-80
2021/03/15 05:46:14;;;;;;;17.60;7.72;;;5.20;99.90;;;;;;4140205;28;20124;-80
2021/03/15 05:48:20;;;;;;;17.60;8.02;;;5.10;99.90;;;;;;4142654;28;20117;-79
2021/03/15 05:50:51;;;;;;;22.52;8.98;;;5.00;99.90;;;;;;4142541;28;20038;-80
2021/03/15 05:53:22;;;;;;;12.88;7.80;;;4.90;99.90;;;;;;4140060;28;20041;-79
2021/03/15 05:55:47;;;;;;;26.27;9.10;;;4.80;99.90;;;;;;4144536;28;20555;-80
2021/03/15 05:58:15;;;;;;;19.27;8.23;;;4.70;99.90;;;;;;4140333;28;20555;-79
2021/03/15 06:00:33;;;;;;;20.00;8.60;;;4.70;99.90;;;;;;4171551;28;20025;-79
2021/03/15 06:03:04;;;;;;;20.70;8.50;;;4.70;99.90;;;;;;4144240;28;20030;-80
2021/03/15 06:05:24;;;;;;;13.90;7.75;;;4.70;99.90;;;;;;4158484;28;20117;-79
2021/03/15 06:07:28;;;;;;;16.88;8.57;;;4.60;99.90;;;;;;4136618;28;20030;-79
2021/03/15 06:09:36;;;;;;;24.38;9.20;;;4.60;99.90;;;;;;4173906;28;20032;-80
2021/03/15 06:11:45;;;;;;;20.65;9.35;;;4.60;99.90;;;;;;4145547;28;20037;-79
2021/03/15 06:13:46;;;;;;;20.77;9.57;;;4.60;99.90;;;;;;4160197;28;20819;-79
2021/03/15 06:15:47;;;;;;;21.15;10.05;;;4.60;99.90;;;;;;4145139;28;20037;-80
2021/03/15 06:17:48;;;;;;;20.00;9.63;;;4.60;99.90;;;;;;4144643;28;20042;-79
2021/03/15 06:19:50;;;;;;;20.60;9.40;;;4.60;99.90;;;;;;4143852;28;20496;-79
2021/03/15 06:21:52;;;;;;;22.42;8.95;;;4.60;99.90;;;;;;4141448;28;20053;-80
2021/03/15 06:23:54;;;;;;;23.88;9.18;;;4.70;99.90;;;;;;4141270;28;20693;-79
2021/03/15 06:25:55;;;;;;;18.45;9.50;;;4.70;99.90;;;;;;4142684;28;20034;-79
2021/03/15 06:27:56;;;;;;;22.63;9.82;;;4.80;99.90;;;;;;4144182;28;20042;-79
2021/03/15 06:29:57;;;;;;;25.10;11.02;;;4.90;99.90;;;;;;4144572;28;20064;-79
2021/03/15 06:31:58;;;;;;;20.20;11.07;;;4.90;99.90;;;;;;4145802;28;20045;-79
2021/03/15 06:33:59;;;;;;;25.63;9.18;;;5.00;99.90;;;;;;4138540;28;20505;-79
2021/03/15 06:36:03;;;;;;;26.05;10.63;;;5.00;99.90;;;;;;4145016;28;20041;-79
2021/03/15 06:38:04;;;;;;;25.42;10.60;;;5.10;99.90;;;;;;4142427;28;20050;-79
2021/03/15 06:40:07;;;;;;;23.92;12.18;;;5.10;99.90;;;;;;4139462;28;20103;-78
2021/03/15 06:42:09;;;;;;;23.77;11.75;;;5.20;99.90;;;;;;4142964;28;20049;-78
2021/03/15 06:44:10;;;;;;;30.17;11.80;;;5.10;99.90;;;;;;4170181;28;20141;-79
2021/03/15 06:46:15;;;;;;;29.38;12.07;;;5.20;99.90;;;;;;4138388;28;20030;-79
2021/03/15 06:48:17;;;;;;;30.27;11.15;;;5.10;99.90;;;;;;4165711;28;20038;-78
2021/03/15 06:50:19;;;;;;;30.05;12.40;;;5.10;99.90;;;;;;4140184;28;20441;-79
2021/03/15 06:52:20;;;;;;;28.02;11.25;;;5.10;99.90;;;;;;4166937;28;20037;-79
2021/03/15 06:54:26;;;;;;;20.88;9.95;;;5.10;99.90;;;;;;4139955;28;20042;-79
2021/03/15 06:56:26;;;;;;;28.13;10.50;;;5.10;99.90;;;;;;4145618;28;20109;-79
2021/03/15 06:58:30;;;;;;;24.58;11.35;;;5.20;99.90;;;;;;4138529;28;20545;-79
2021/03/15 07:00:30;;;;;;;;;;;5.30;99.90;;;;;;4140693;28;20187;-79
2021/03/15 07:02:31;;;;;;;28.00;9.48;;;5.30;99.90;;;;;;4141991;28;19921;-78
2021/03/15 07:04:32;;;;;;;22.67;9.27;;;5.40;99.90;;;;;;4169307;28;20053;-79
2021/03/15 07:06:38;;;;;;;27.42;8.20;;;5.50;99.90;;;;;;4142600;28;20115;-79
2021/03/15 07:08:39;;;;;;;26.75;8.65;;;5.60;99.90;;;;;;4140649;28;20030;-79
2021/03/15 07:10:45;;;;;;;27.08;8.00;;;5.70;99.90;;;;;;4145246;28;20032;-79
2021/03/15 07:12:46;;;;;;;14.95;7.05;;;5.80;99.90;;;;;;4135722;28;20746;-79
2021/03/15 07:14:48;;;;;;;25.63;6.90;;;5.80;99.90;;;;;;4144185;28;20057;-79
2021/03/15 07:17:01;;;;;;;25.58;6.75;;;5.90;99.90;;;;;;4141679;28;20045;-79
2021/03/15 07:19:22;;;;;;;19.75;6.43;;;6.10;99.90;;;;;;4142868;28;20022;-79
2021/03/15 07:21:38;;;;;;;15.80;5.82;;;6.00;99.90;;;;;;4139043;28;20082;-80
2021/03/15 07:23:54;;;;;;;18.13;5.70;;;6.00;99.90;;;;;;4143018;28;20037;-80
2021/03/15 07:26:09;;;;;;;21.40;6.55;;;6.00;99.90;;;;;;4141316;28;20026;-80
2021/03/15 07:28:10;;;;;;;14.60;5.57;;;6.00;99.90;;;;;;4142653;28;20030;-80
2021/03/15 07:30:27;;;;;;;20.85;5.72;;;5.90;99.90;;;;;;4144191;28;20045;-79
2021/03/15 07:32:40;;;;;;;19.63;5.50;;;6.00;99.90;;;;;;4139869;28;20042;-80
2021/03/15 07:34:40;;;;;;;22.80;6.25;;;5.90;99.90;;;;;;4143143;28;20041;-80
2021/03/15 07:36:50;;;;;;;17.63;5.78;;;5.90;99.90;;;;;;4141936;28;20481;-79
2021/03/15 07:38:51;;;;;;;23.15;5.65;;;5.80;99.90;;;;;;4139312;28;20049;-78
2021/03/15 07:40:52;;;;;;;17.52;5.85;;;5.80;99.90;;;;;;4137514;28;20037;-80
2021/03/15 07:43:00;;;;;;;26.42;6.13;;;5.90;99.90;;;;;;4136313;28;20064;-79
2021/03/15 07:45:01;;;;;;;25.15;5.35;;;5.90;99.90;;;;;;4140336;28;20420;-80
2021/03/15 07:47:06;;;;;;;17.85;6.63;;;6.00;99.90;;;;;;4140433;28;20054;-79
2021/03/15 07:49:20;;;;;;;23.42;5.22;;;6.10;99.90;;;;;;4140188;28;20040;-80
2021/03/15 07:51:35;;;;;;;11.98;5.50;;;6.30;99.90;;;;;;4140611;28;20352;-80
2021/03/15 07:53:40;;;;;;;18.83;5.65;;;6.60;99.90;;;;;;4140429;28;20469;-79
2021/03/15 07:55:41;;;;;;;16.58;5.03;;;6.70;99.90;;;;;;4138543;28;20034;-79
2021/03/15 07:57:42;;;;;;;27.73;6.68;;;6.70;99.90;;;;;;4142421;28;20057;-80
2021/03/15 07:59:44;;;;;;;22.08;5.05;;;6.70;99.90;;;;;;4141775;28;20080;-80
2021/03/15 08:01:46;;;;;;;19.25;5.18;;;6.70;99.90;;;;;;4139026;28;20456;-80
2021/03/15 08:03:46;;;;;;;16.48;5.22;;;6.80;99.90;;;;;;4139145;28;20076;-80
2021/03/15 08:05:48;;;;;;;19.20;7.15;;;6.80;99.90;;;;;;4134368;28;20461;-80
2021/03/15 08:07:49;;;;;;;20.42;5.72;;;6.80;99.90;;;;;;4136650;28;20034;-80
2021/03/15 08:09:52;;;;;;;24.15;5.57;;;6.90;99.90;;;;;;4140923;28;20053;-80
2021/03/15 08:11:55;;;;;;;22.75;6.30;;;7.00;99.90;;;;;;4137551;28;20037;-80
2021/03/15 08:14:01;;;;;;;18.88;5.13;;;7.10;99.90;;;;;;4138249;28;20057;-80
2021/03/15 08:16:02;;;;;;;20.10;5.97;;;7.20;99.90;;;;;;4142029;28;20080;-80
2021/03/15 08:18:07;;;;;;;22.23;5.35;;;7.10;99.90;;;;;;4142850;28;20041;-79
2021/03/15 08:20:08;;;;;;;13.80;5.18;;;7.20;99.90;;;;;;4139704;28;20053;-80
2021/03/15 08:22:11;;;;;;;14.15;4.30;;;7.10;99.90;;;;;;4141933;28;20053;-80
2021/03/15 08:24:15;;;;;;;11.23;3.47;;;7.00;99.90;;;;;;4137619;28;20034;-80
2021/03/15 08:26:16;;;;;;;13.68;4.45;;;7.00;99.90;;;;;;4157091;28;20108;-80
2021/03/15 08:28:18;;;;;;;18.85;5.25;;;6.90;99.90;;;;;;4133557;28;20113;-80
2021/03/15 08:30:26;;;;;;;13.15;4.43;;;6.80;99.90;;;;;;4142015;28;20026;-78
2021/03/15 08:32:33;;;;;;;12.75;4.35;;;6.70;99.90;;;;;;4157202;28;20052;-79
2021/03/15 08:34:38;;;;;;;15.93;4.50;;;6.60;99.90;;;;;;4136902;28;20035;-78
2021/03/15 08:36:43;;;;;;;16.38;4.43;;;6.60;99.90;;;;;;4141241;28;20038;-78
2021/03/15 08:38:45;;;;;;;15.55;5.28;;;6.60;99.90;;;;;;4141258;28;20420;-78
2021/03/15 08:40:45;;;;;;;14.82;3.60;;;6.80;99.90;;;;;;4141795;28;20030;-79
2021/03/15 08:42:47;;;;;;;12.75;4.65;;;7.10;99.90;;;;;;4133210;28;20035;-78
2021/03/15 08:44:51;;;;;;;15.13;5.13;;;7.30;99.90;;;;;;4142249;28;20034;-79
2021/03/15 08:46:52;;;;;;;20.45;8.43;;;7.50;99.90;;;;;;4140026;28;20036;-78
2021/03/15 08:48:53;;;;;;;12.25;5.93;;;7.70;99.90;;;;;;4133495;28;20057;-79
2021/03/15 08:50:57;;;;;;;17.13;5.30;;;7.70;99.90;;;;;;4142998;28;20026;-78
2021/03/15 08:52:59;;;;;;;15.25;4.28;;;7.60;99.90;;;;;;4168895;28;20122;-78
2021/03/15 08:55:00;;;;;;;15.98;3.72;;;7.50;99.90;;;;;;4142071;28;20072;-79
2021/03/15 08:57:03;;;;;;;11.50;4.20;;;7.50;99.90;;;;;;4139794;28;20392;-78
2021/03/15 08:59:06;;;;;;;13.23;3.60;;;7.50;99.90;;;;;;4140343;28;20030;-78
2021/03/15 09:01:08;;;;;;;16.95;3.65;;;7.40;99.90;;;;;;4143035;28;20818;-79
2021/03/15 09:03:10;;;;;;;12.30;3.47;;;7.40;99.90;;;;;;4143068;28;20054;-79
2021/03/15 09:05:23;;;;;;;14.63;4.57;;;7.50;99.90;;;;;;4137824;28;20038;-79
2021/03/15 09:07:31;;;;;;;14.05;4.57;;;7.60;99.90;;;;;;4141250;28;20482;-79
2021/03/15 09:09:33;;;;;;;10.88;3.80;;;7.70;99.90;;;;;;4141160;28;20053;-79
2021/03/15 09:11:34;;;;;;;10.25;3.53;;;7.80;99.90;;;;;;4169603;28;20037;-78
2021/03/15 09:13:35;;;;;;;9.25;3.75;;;8.10;99.90;;;;;;4144693;28;20042;-79
2021/03/15 09:15:37;;;;;;;11.05;3.53;;;8.10;99.90;;;;;;4146229;28;20053;-79
2021/03/15 09:17:37;;;;;;;9.90;4.40;;;8.20;99.90;;;;;;4146215;28;20038;-79
2021/03/15 09:19:47;;;;;;;9.25;3.30;;;8.40;99.90;;;;;;4146016;28;20042;-78
2021/03/15 09:21:57;;;;;;;16.45;4.28;;;8.60;99.90;;;;;;4140088;28;20840;-79
2021/03/15 09:24:01;;;;;;;9.80;3.30;;;8.60;99.90;;;;;;4146820;28;20072;-79
2021/03/15 09:26:25;;;;;;;18.67;3.78;;;8.70;99.90;;;;;;4144270;28;20113;-78
2021/03/15 09:28:26;;;;;;;7.78;3.00;;;8.80;99.90;;;;;;4139333;28;20049;-79
2021/03/15 09:30:35;;;;;;;14.13;3.70;;;8.90;99.90;;;;;;4145581;28;20034;-79
2021/03/15 09:32:40;;;;;;;10.82;3.72;;;8.80;99.90;;;;;;4140627;28;20030;-79
2021/03/15 09:34:41;;;;;;;12.13;4.72;;;8.80;99.90;;;;;;4145585;28;20057;-78
2021/03/15 09:36:42;;;;;;;13.45;3.60;;;8.80;99.90;;;;;;4142841;28;20046;-78
2021/03/15 09:38:43;;;;;;;10.40;3.42;;;9.00;99.90;;;;;;4144514;28;20034;-79
2021/03/15 09:40:49;;;;;;;9.82;3.53;;;9.30;99.90;;;;;;4144267;28;20505;-79
2021/03/15 09:42:50;;;;;;;9.10;2.92;;;9.40;99.90;;;;;;4142427;28;20405;-79
2021/03/15 09:44:51;;;;;;;10.07;3.50;;;9.60;99.90;;;;;;4167901;28;20095;-79
2021/03/15 09:46:53;;;;;;;14.13;3.35;;;9.50;99.90;;;;;;4142861;28;20050;-79
2021/03/15 09:48:54;;;;;;;15.25;4.85;;;9.40;99.90;;;;;;4141299;28;20030;-79
2021/03/15 09:51:05;;;;;;;7.15;3.35;;;9.30;99.90;;;;;;4143539;28;20030;-80
2021/03/15 09:53:11;;;;;;;5.65;2.72;;;9.30;99.90;;;;;;4142246;28;20456;-79
2021/03/15 09:55:12;;;;;;;8.13;3.67;;;9.30;99.90;;;;;;4143434;28;20060;-79
2021/03/15 09:57:14;;;;;;;9.82;3.10;;;9.20;99.90;;;;;;4143340;28;20037;-79
2021/03/15 09:59:15;;;;;;;9.52;4.05;;;9.10;99.90;;;;;;4144177;28;20034;-79
2021/03/15 10:01:18;;;;;;;11.75;3.95;;;8.80;99.90;;;;;;4171779;28;20037;-78
2021/03/15 10:03:23;;;;;;;9.93;3.45;;;8.70;99.90;;;;;;4139213;28;20460;-79
2021/03/15 10:05:24;;;;;;;7.03;2.55;;;8.80;99.90;;;;;;4140349;28;20125;-78
2021/03/15 10:07:25;;;;;;;15.52;3.78;;;8.80;99.90;;;;;;4145349;28;20445;-79
2021/03/15 10:09:26;;;;;;;12.15;3.75;;;8.90;99.90;;;;;;4144238;28;20437;-78
2021/03/15 10:11:28;;;;;;;15.50;5.00;;;9.00;99.90;;;;;;4142717;28;20061;-78
2021/03/15 10:13:29;;;;;;;7.30;3.05;;;9.10;99.90;;;;;;4144024;28;20058;-79
2021/03/15 10:15:30;;;;;;;15.85;3.65;;;9.10;99.90;;;;;;4140034;28;20045;-78
2021/03/15 10:17:31;;;;;;;8.45;4.25;;;9.10;99.90;;;;;;4138770;28;20040;-78
2021/03/15 10:19:32;;;;;;;11.93;3.75;;;9.20;99.90;;;;;;4144167;28;20204;-78
2021/03/15 10:21:33;;;;;;;10.60;3.72;;;9.40;99.90;;;;;;4139138;28;20382;-78
2021/03/15 10:23:40;;;;;;;14.70;3.83;;;9.70;99.90;;;;;;4142443;28;20117;-78
2021/03/15 10:26:00;;;;;;;16.20;3.88;;;9.90;99.90;;;;;;4140523;28;20037;-77
2021/03/15 10:28:01;;;;;;;7.70;3.65;;;10.00;99.90;;;;;;4141206;28;20034;-78
2021/03/15 10:30:09;;;;;;;11.68;3.63;;;9.90;99.90;;;;;;4142530;28;20057;-77
2021/03/15 10:32:10;;;;;;;11.18;2.78;;;9.90;99.90;;;;;;4138493;28;20038;-78
2021/03/15 10:34:11;;;;;;;13.57;3.25;;;9.70;99.90;;;;;;4145083;28;20100;-78
2021/03/15 10:36:16;;;;;;;7.55;3.08;;;9.70;99.90;;;;;;4132946;28;20040;-78
2021/03/15 10:38:21;;;;;;;7.50;2.95;;;9.60;99.90;;;;;;4136963;28;20042;-78
2021/03/15 10:40:23;;;;;;;10.38;3.92;;;9.60;99.90;;;;;;4135869;28;20381;-78
2021/03/15 10:42:25;;;;;;;8.07;3.35;;;9.40;99.90;;;;;;4144297;28;20572;-77
2021/03/15 10:44:25;;;;;;;12.93;3.42;;;9.30;99.90;;;;;;4141027;28;20101;-77
2021/03/15 10:46:29;;;;;;;11.45;4.05;;;9.10;99.90;;;;;;4139744;28;20030;-76
2021/03/15 10:48:30;;;;;;;6.22;2.90;;;9.10;99.90;;;;;;4141893;28;20041;-77